Carmencita — LAEV7 — position and weather

sailwx.info

Track history (hours):
 
Tides and Currents Weather Stations Pressure Air Temp Water Temp Dewpoint Dewpoint Depression Visibility Wind Speed Wind Dir Waves Ship Positions

Carmencita

Last reported at 2018-Mar-29 16:01 UTC. Time now 2018-Apr-24 18:34 UTC.
Position N 48°21' W 125°49'.
Warning: this ship's position is 26 days out of date.

Length 185 m; draft 12.8 m.

Type: Cargo ship. MMSI: 259741000.

Date/timePositionNaut miles runAvg speedWind from/ knotsBaromVisibWave heightAir tempDewpointWater temp
2018-Mar-29 16:01N 48°21' W 125°49'015.0
2018-Mar-29 16:00N 48°21' W 125°49'511.1
2018-Mar-29 15:31N 48°23' W 125°42'611.1
2018-Mar-29 15:01N 48°25' W 125°34'811.0
2018-Mar-29 14:16N 48°28' W 125°22'311.2
2018-Mar-29 14:00N 48°29' W 125°18'611.2
2018-Mar-29 13:29N 48°31' W 125°10'611.2
2018-Mar-29 12:59N 48°31' W 125°01'511.5
2018-Mar-29 12:30N 48°31' W 124°53'611.2
2018-Mar-29 12:00N 48°31' W 124°45'510.7
2018-Mar-29 11:30N 48°29' W 124°37'510.4
2018-Mar-29 11:00N 48°27' W 124°30'510.6
2018-Mar-29 10:31N 48°25' W 124°23'510.1
2018-Mar-29 10:00N 48°23' W 124°16'5 9.9
2018-Mar-29 09:30N 48°21' W 124°09'510.1
2018-Mar-29 09:00N 48°19' W 124°02'510.0
2018-Mar-29 08:30N 48°18' W 123°55'5 9.0
2018-Mar-29 07:54N 48°17' W 123°47'4 8.9
2018-Mar-29 07:24N 48°16' W 123°40'4 9.0
2018-Mar-29 06:55N 48°15' W 123°34'3 6.3
2018-Mar-29 06:28N 48°16' W 123°29'4 9.7
2018-Mar-29 06:01N 48°20' W 123°26'5 7.2
2018-Mar-29 05:22N 48°23' W 123°21'410.5
2018-Mar-29 05:01N 48°24' W 123°15'611.5
2018-Mar-29 04:30N 48°29' W 123°12'714.7
2018-Mar-29 04:00N 48°37' W 123°15'713.1
2018-Mar-29 03:31N 48°43' W 123°13'814.8
2018-Mar-29 03:00N 48°46' W 123°02'611.5
2018-Mar-29 02:30N 48°52' W 123°05'714.4
2018-Mar-29 02:01N 48°57' W 123°13'714.0
2018-Mar-29 01:30N 49°01' W 123°21'612.8
2018-Mar-29 01:00N 49°08' W 123°23'713.5
2018-Mar-29 00:30N 49°14' W 123°21'611.9
2018-Mar-29 00:00N 49°19' W 123°15'510.2
2018-Mar-28 23:30N 49°19' W 123°08'2 4.4
2018-Mar-28 22:58N 49°17' W 123°05'0 0.0
2018-Mar-28 22:28N 49°17' W 123°05'0 0.0
2018-Mar-28 21:58N 49°17' W 123°05'0 0.0
2018-Mar-28 21:28N 49°17' W 123°05'0 0.0
2018-Mar-28 20:58N 49°17' W 123°05'0 0.0
2018-Mar-28 20:28N 49°17' W 123°05'0 0.0
2018-Mar-28 19:58N 49°17' W 123°05'0 0.0
2018-Mar-28 19:28N 49°17' W 123°05'0 0.0
2018-Mar-28 18:58N 49°17' W 123°05'0 0.0
2018-Mar-28 18:28N 49°17' W 123°05'0 0.0
2018-Mar-28 17:58N 49°17' W 123°05'0 0.0
2018-Mar-28 17:28N 49°17' W 123°05'0 0.0
2018-Mar-28 16:58N 49°17' W 123°05'0 0.0
2018-Mar-28 16:28N 49°17' W 123°05'0 0.0
2018-Mar-28 15:58N 49°17' W 123°05'0 0.0
2018-Mar-28 15:28N 49°17' W 123°05'0 0.0
2018-Mar-28 14:58N 49°17' W 123°05'0 0.0
2018-Mar-28 14:28N 49°17' W 123°05'0 0.0
2018-Mar-28 13:58N 49°17' W 123°05'0 0.0
2018-Mar-28 13:28N 49°17' W 123°05'0 0.0
2018-Mar-28 12:58N 49°17' W 123°05'0 0.0
2018-Mar-28 12:28N 49°17' W 123°05'0 0.0
2018-Mar-28 11:58N 49°17' W 123°05'0 0.0
2018-Mar-28 11:28N 49°17' W 123°05'0 0.0
2018-Mar-28 10:58N 49°17' W 123°05'0 0.0
2018-Mar-28 10:28N 49°17' W 123°05'0 0.0
2018-Mar-28 09:58N 49°17' W 123°05'0 0.0
2018-Mar-28 09:28N 49°17' W 123°05'0 0.0
2018-Mar-28 08:58N 49°17' W 123°05'0 0.0
2018-Mar-28 08:28N 49°17' W 123°05'0 0.0
2018-Mar-28 07:58N 49°17' W 123°05'0 0.0
2018-Mar-28 07:28N 49°17' W 123°05'0 0.0
2018-Mar-28 06:58N 49°17' W 123°05'0 0.0
2018-Mar-28 06:28N 49°17' W 123°05'0 0.0
2018-Mar-28 05:58N 49°17' W 123°05'0 0.0
2018-Mar-28 05:28N 49°17' W 123°05'0 0.0
2018-Mar-28 04:58N 49°17' W 123°05'0 0.0
2018-Mar-28 04:28N 49°17' W 123°05'0 0.0
2018-Mar-28 03:58N 49°17' W 123°05'0 0.0
2018-Mar-28 03:28N 49°17' W 123°05'0 0.0
2018-Mar-28 02:58N 49°17' W 123°05'0 0.0
2018-Mar-28 02:28N 49°17' W 123°05'0 0.0
2018-Mar-28 01:58N 49°17' W 123°05'0 0.0
2018-Mar-28 01:28N 49°17' W 123°05'0 0.0
2018-Mar-28 00:58N 49°17' W 123°05'0 0.0
2018-Mar-28 00:28N 49°17' W 123°05'0 0.0
2018-Mar-27 23:58N 49°17' W 123°05'0 0.0
2018-Mar-27 23:28N 49°17' W 123°05'0 0.0
2018-Mar-27 22:58N 49°17' W 123°05'0 0.0
2018-Mar-27 22:28N 49°17' W 123°05'0 0.0
2018-Mar-27 21:58N 49°17' W 123°05'0 0.0
2018-Mar-27 21:28N 49°17' W 123°05'0 0.0
2018-Mar-27 20:58N 49°17' W 123°05'0 0.0
2018-Mar-27 20:28N 49°17' W 123°05'0 0.0
2018-Mar-27 19:58N 49°17' W 123°05'0 0.0
2018-Mar-27 19:28N 49°17' W 123°05'0 0.1
2018-Mar-27 18:58N 49°17' W 123°05'0 0.1
2018-Mar-27 18:28N 49°17' W 123°05'0 0.0
2018-Mar-27 17:58N 49°17' W 123°05'0 0.0
2018-Mar-27 17:28N 49°17' W 123°05'0 0.0
2018-Mar-27 16:58N 49°17' W 123°05'0 0.0
2018-Mar-27 16:28N 49°17' W 123°05'0 0.0
2018-Mar-27 15:58N 49°17' W 123°05'0 0.0
2018-Mar-27 15:28N 49°17' W 123°05'0 0.0
2018-Mar-27 14:55N 49°17' W 123°05'0 0.0
2018-Mar-27 14:28N 49°17' W 123°05'0 0.0
2018-Mar-27 13:58N 49°17' W 123°05'0 0.0
2018-Mar-27 13:28N 49°17' W 123°05'0 0.0
2018-Mar-27 12:58N 49°17' W 123°05'0 0.0
2018-Mar-27 12:28N 49°17' W 123°05'0 0.0
2018-Mar-27 11:58N 49°17' W 123°05'0 0.0
2018-Mar-27 11:28N 49°17' W 123°05'0 0.0
2018-Mar-27 10:58N 49°17' W 123°05'0 0.0
2018-Mar-27 10:28N 49°17' W 123°05'0 0.0
2018-Mar-27 09:58N 49°17' W 123°05'0 0.0
2018-Mar-27 09:28N 49°17' W 123°05'0 0.0
2018-Mar-27 08:55N 49°17' W 123°05'0 0.0
2018-Mar-27 08:28N 49°17' W 123°05'0 0.0
2018-Mar-27 07:58N 49°17' W 123°05'0 0.0
2018-Mar-27 07:28N 49°17' W 123°05'0 0.0
2018-Mar-27 06:58N 49°17' W 123°05'0 0.0
2018-Mar-27 06:28N 49°17' W 123°05'0 0.0
2018-Mar-27 05:58N 49°17' W 123°05'0 0.0
2018-Mar-27 05:28N 49°17' W 123°05'0 0.0
2018-Mar-27 04:58N 49°17' W 123°05'0 0.0
2018-Mar-27 04:28N 49°17' W 123°05'0 0.0
2018-Mar-27 03:58N 49°17' W 123°05'0 0.0
2018-Mar-27 03:28N 49°17' W 123°05'0 0.0
2018-Mar-27 02:58N 49°17' W 123°05'0 0.0
2018-Mar-27 02:28N 49°17' W 123°05'0 0.0
2018-Mar-27 01:58N 49°17' W 123°05'0 0.0
2018-Mar-27 01:28N 49°17' W 123°05'0 0.0
2018-Mar-27 00:58N 49°17' W 123°05'0 0.0
2018-Mar-27 00:28N 49°17' W 123°05'0 0.0
2018-Mar-26 23:55N 49°17' W 123°05'0 0.0
2018-Mar-26 23:28N 49°17' W 123°05'0 0.0
2018-Mar-26 22:55N 49°17' W 123°05'0 0.0
2018-Mar-26 22:28N 49°17' W 123°05'0 0.0
2018-Mar-26 21:58N 49°17' W 123°05'0 0.0
2018-Mar-26 21:28N 49°17' W 123°05'0 0.0
2018-Mar-26 20:58N 49°17' W 123°05'0 0.0
2018-Mar-26 20:28N 49°17' W 123°05'0 0.0
2018-Mar-26 19:58N 49°17' W 123°05'0 0.0
2018-Mar-26 19:28N 49°17' W 123°05'0 0.0
2018-Mar-26 18:58N 49°17' W 123°05'0 0.0
2018-Mar-26 18:25N 49°17' W 123°05'0 0.0
2018-Mar-26 17:58N 49°17' W 123°05'0 0.0
2018-Mar-26 17:28N 49°17' W 123°05'0 0.0
2018-Mar-26 16:58N 49°17' W 123°05'0 0.0
2018-Mar-26 16:28N 49°17' W 123°05'0 0.0
2018-Mar-26 15:58N 49°17' W 123°05'0 0.0
2018-Mar-26 15:28N 49°17' W 123°05'0 0.0
2018-Mar-26 14:58N 49°17' W 123°05'0 0.0
2018-Mar-26 14:28N 49°17' W 123°05'0 0.0
2018-Mar-26 13:58N 49°17' W 123°05'0 0.0
2018-Mar-26 13:28N 49°17' W 123°05'0 0.0
2018-Mar-26 12:58N 49°17' W 123°05'0 0.0
2018-Mar-26 12:28N 49°17' W 123°05'0 0.0
2018-Mar-26 11:55N 49°17' W 123°05'0 0.0
2018-Mar-26 11:28N 49°17' W 123°05'0 0.0
2018-Mar-26 10:55N 49°17' W 123°05'0 0.0
2018-Mar-26 10:28N 49°17' W 123°05'0 0.0
2018-Mar-26 09:58N 49°17' W 123°05'0 0.0
2018-Mar-26 09:28N 49°17' W 123°05'0 0.0
2018-Mar-26 08:58N 49°17' W 123°05'0 0.0
2018-Mar-26 08:28N 49°17' W 123°05'0 0.0
2018-Mar-26 07:58N 49°17' W 123°05'0 0.0
2018-Mar-26 07:28N 49°17' W 123°05'0 0.0
2018-Mar-26 06:55N 49°17' W 123°05'0 0.0
2018-Mar-26 06:28N 49°17' W 123°05'0 0.0
2018-Mar-26 05:58N 49°17' W 123°05'0 0.0
2018-Mar-26 05:28N 49°17' W 123°05'0 0.0
2018-Mar-26 04:49N 49°17' W 123°05'0 0.0
2018-Mar-26 04:25N 49°17' W 123°05'0 0.0
2018-Mar-26 03:58N 49°17' W 123°05'0 0.0
2018-Mar-26 03:28N 49°17' W 123°05'0 0.0
2018-Mar-26 02:58N 49°17' W 123°05'0 0.0
2018-Mar-26 02:28N 49°17' W 123°05'0 0.0
2018-Mar-26 01:58N 49°17' W 123°05'0 0.0
2018-Mar-26 01:30N 49°17' W 123°05'0 0.3
2018-Mar-26 01:00N 49°17' W 123°05'1 1.4
2018-Mar-26 00:30N 49°18' W 123°05'0 0.1
2018-Mar-26 00:00N 49°18' W 123°05'0 0.0
2018-Mar-25 23:30N 49°18' W 123°05'0 0.1
2018-Mar-25 23:00N 49°18' W 123°05'0 0.1
2018-Mar-25 22:30N 49°18' W 123°05'0 0.0
2018-Mar-25 22:00N 49°18' W 123°05'0 0.0
2018-Mar-25 21:30N 49°18' W 123°05'0 0.0
2018-Mar-25 21:00N 49°18' W 123°05'0 0.0
2018-Mar-25 20:30N 49°18' W 123°05'0 0.0
2018-Mar-25 20:00N 49°18' W 123°05'0 0.0
2018-Mar-25 19:30N 49°18' W 123°05'0 0.0
2018-Mar-25 19:00N 49°18' W 123°05'0 0.0
2018-Mar-25 18:30N 49°18' W 123°05'0 0.0
2018-Mar-25 18:00N 49°18' W 123°05'0 0.0
2018-Mar-25 17:30N 49°18' W 123°05'0 0.0
2018-Mar-25 17:00N 49°18' W 123°05'0 0.0
2018-Mar-25 16:30N 49°18' W 123°05'0 0.0
2018-Mar-25 16:00N 49°18' W 123°05'0 0.0
2018-Mar-25 15:30N 49°18' W 123°05'0 0.0
2018-Mar-25 15:00N 49°18' W 123°05'0 0.0
2018-Mar-25 14:30N 49°18' W 123°05'0 0.0
2018-Mar-25 14:00N 49°18' W 123°05'0 0.0
2018-Mar-25 13:30N 49°18' W 123°05'0 0.0
2018-Mar-25 13:00N 49°18' W 123°05'0 0.0
2018-Mar-25 12:30N 49°18' W 123°05'0 0.0
2018-Mar-25 12:00N 49°18' W 123°05'0 0.1
2018-Mar-25 11:30N 49°18' W 123°05'0 0.1
2018-Mar-25 11:00N 49°18' W 123°05'0 0.0
2018-Mar-25 10:30N 49°18' W 123°05'0 0.0
2018-Mar-25 10:00N 49°18' W 123°05'0 0.0
2018-Mar-25 09:30N 49°18' W 123°05'0 0.0
2018-Mar-25 09:00N 49°18' W 123°05'0 0.1
2018-Mar-25 08:30N 49°18' W 123°05'0 0.0
2018-Mar-25 08:00N 49°18' W 123°05'0 0.0
2018-Mar-25 07:30N 49°18' W 123°05'0 0.1
2018-Mar-25 07:00N 49°18' W 123°05'0 0.0
2018-Mar-25 06:30N 49°18' W 123°05'0 0.1
2018-Mar-25 06:00N 49°18' W 123°05'0 0.0
2018-Mar-25 05:30N 49°18' W 123°05'0 0.2
2018-Mar-25 05:00N 49°18' W 123°05'0 0.0
2018-Mar-25 04:30N 49°18' W 123°05'0 0.0
2018-Mar-25 04:00N 49°18' W 123°05'0 0.1
2018-Mar-25 03:30N 49°18' W 123°05'0 0.0
2018-Mar-25 03:00N 49°18' W 123°05'0 0.0
2018-Mar-25 02:30N 49°18' W 123°05'0 0.1
2018-Mar-25 02:00N 49°18' W 123°05'0 0.1
2018-Mar-25 01:30N 49°18' W 123°05'0 0.1
2018-Mar-25 01:00N 49°18' W 123°05'0 0.0
2018-Mar-25 00:30N 49°18' W 123°05'0 0.0
2018-Mar-25 00:00N 49°18' W 123°05'0 0.1
2018-Mar-24 23:30N 49°18' W 123°05'0 0.0
2018-Mar-24 23:00N 49°18' W 123°05'0 0.0
2018-Mar-24 22:30N 49°18' W 123°05'0 0.0
2018-Mar-24 22:00N 49°18' W 123°05'0 0.0
2018-Mar-24 21:30N 49°18' W 123°05'0 0.0
2018-Mar-24 21:00N 49°18' W 123°05'0 0.1
2018-Mar-24 20:30N 49°18' W 123°05'0 0.1
2018-Mar-24 20:00N 49°18' W 123°05'0 0.1
2018-Mar-24 19:30N 49°18' W 123°05'0 0.1
2018-Mar-24 19:00N 49°18' W 123°05'0 0.3
2018-Mar-24 18:30N 49°18' W 123°05'0 0.2
2018-Mar-24 18:00N 49°18' W 123°05'0 0.0
2018-Mar-24 17:30N 49°18' W 123°05'0 0.1
2018-Mar-24 17:00N 49°18' W 123°05'0 0.0
2018-Mar-24 16:30N 49°18' W 123°05'0 0.0
2018-Mar-24 16:00N 49°18' W 123°05'0 0.0
2018-Mar-24 15:30N 49°18' W 123°05'0 0.0
2018-Mar-24 15:00N 49°18' W 123°05'0 0.1
2018-Mar-24 14:30N 49°18' W 123°05'0 0.2
2018-Mar-24 14:00N 49°18' W 123°05'0 0.1
2018-Mar-24 13:30N 49°18' W 123°05'0 0.1
2018-Mar-24 13:00N 49°18' W 123°05'0 0.0
2018-Mar-24 12:30N 49°18' W 123°05'0 0.0
2018-Mar-24 12:00N 49°18' W 123°05'0 0.1
2018-Mar-24 11:30N 49°18' W 123°05'0 0.1
2018-Mar-24 11:00N 49°18' W 123°05'0 0.0
2018-Mar-24 10:30N 49°18' W 123°05'0 0.0
2018-Mar-24 10:00N 49°18' W 123°05'0 0.0
2018-Mar-24 09:30N 49°18' W 123°05'0 0.0
2018-Mar-24 09:00N 49°18' W 123°05'0 0.2
2018-Mar-24 08:30N 49°18' W 123°05'0 0.1
2018-Mar-24 08:00N 49°18' W 123°05'0 0.1
2018-Mar-24 07:30N 49°18' W 123°05'0 0.1
2018-Mar-24 07:00N 49°18' W 123°05'0 0.1
2018-Mar-24 06:30N 49°18' W 123°05'0 0.2
2018-Mar-24 06:00N 49°18' W 123°05'0 0.2
2018-Mar-24 05:30N 49°18' W 123°05'0 0.2
2018-Mar-24 05:00N 49°18' W 123°05'0 0.1
2018-Mar-24 04:30N 49°18' W 123°05'0 0.0
2018-Mar-24 04:00N 49°18' W 123°05'0 0.2
2018-Mar-24 03:30N 49°18' W 123°05'0 0.0
2018-Mar-24 03:00N 49°18' W 123°05'0 0.2
2018-Mar-24 02:30N 49°18' W 123°05'0 0.1
2018-Mar-24 02:00N 49°18' W 123°05'0 0.1
2018-Mar-24 01:30N 49°18' W 123°05'0 0.0
2018-Mar-24 01:00N 49°18' W 123°05'0 0.0
2018-Mar-24 00:30N 49°18' W 123°05'0 0.0
2018-Mar-24 00:00N 49°18' W 123°05'0 0.0
2018-Mar-23 23:30N 49°18' W 123°05'0 0.0
2018-Mar-23 23:00N 49°18' W 123°05'0 0.0
2018-Mar-23 22:30N 49°18' W 123°05'0 0.0
2018-Mar-23 22:00N 49°18' W 123°05'0 0.0
2018-Mar-23 21:30N 49°18' W 123°05'0 0.0
2018-Mar-23 21:00N 49°18' W 123°05'0 0.0
2018-Mar-23 20:30N 49°18' W 123°05'0 0.0
2018-Mar-23 20:00N 49°18' W 123°05'0 0.0
2018-Mar-23 19:30N 49°18' W 123°05'0 0.0
2018-Mar-23 19:00N 49°18' W 123°05'0 0.0
2018-Mar-23 18:30N 49°18' W 123°05'0 0.0
2018-Mar-23 18:00N 49°18' W 123°05'0 0.0
2018-Mar-23 17:30N 49°18' W 123°05'0 0.0
2018-Mar-23 17:00N 49°18' W 123°05'0 0.1
2018-Mar-23 16:30N 49°18' W 123°05'0 0.1
2018-Mar-23 16:00N 49°18' W 123°05'0 0.0
2018-Mar-23 15:30N 49°18' W 123°05'0 0.0
2018-Mar-23 15:00N 49°18' W 123°05'0 0.1
2018-Mar-23 14:30N 49°18' W 123°05'0 0.0
2018-Mar-23 14:00N 49°18' W 123°05'0 0.1
2018-Mar-23 13:30N 49°18' W 123°05'0 0.0
2018-Mar-23 13:00N 49°18' W 123°05'0 0.0
2018-Mar-23 12:30N 49°18' W 123°05'0 0.0
2018-Mar-23 12:00N 49°18' W 123°05'0 0.0
2018-Mar-23 11:30N 49°18' W 123°05'0 0.0
2018-Mar-23 11:00N 49°18' W 123°05'0 0.0
2018-Mar-23 10:30N 49°18' W 123°05'0 0.0
2018-Mar-23 10:00N 49°18' W 123°05'0 0.0
2018-Mar-23 09:30N 49°18' W 123°05'0 0.0
2018-Mar-23 09:00N 49°18' W 123°05'0 0.1
2018-Mar-23 08:30N 49°18' W 123°05'0 0.1
2018-Mar-23 08:00N 49°18' W 123°05'0 0.1
2018-Mar-23 07:30N 49°18' W 123°05'0 0.0
2018-Mar-23 07:00N 49°18' W 123°05'0 0.0
2018-Mar-23 06:30N 49°18' W 123°05'0 0.0
2018-Mar-23 06:00N 49°18' W 123°05'0 0.0
2018-Mar-23 05:30N 49°18' W 123°05'0 0.2
2018-Mar-23 05:00N 49°18' W 123°05'0 0.2
2018-Mar-23 04:30N 49°18' W 123°05'0 0.1
2018-Mar-23 04:00N 49°18' W 123°05'0 0.1
2018-Mar-23 03:30N 49°18' W 123°05'0 0.2
2018-Mar-23 03:00N 49°18' W 123°05'0 0.1
2018-Mar-23 02:30N 49°18' W 123°05'0 0.1
2018-Mar-23 02:00N 49°18' W 123°05'0 0.0
2018-Mar-23 01:30N 49°18' W 123°05'0 0.0
2018-Mar-23 01:00N 49°18' W 123°05'0 0.1
2018-Mar-23 00:30N 49°18' W 123°05'0 0.0
2018-Mar-23 00:00N 49°18' W 123°05'0 0.1
2018-Mar-22 23:30N 49°18' W 123°05'0 0.0
2018-Mar-22 23:00N 49°18' W 123°05'0 0.0
2018-Mar-22 22:30N 49°18' W 123°05'0 0.0
2018-Mar-22 22:00N 49°18' W 123°05'0 0.0
2018-Mar-22 21:30N 49°18' W 123°05'0 0.0
2018-Mar-22 21:00N 49°18' W 123°05'0 0.0
2018-Mar-22 20:30N 49°18' W 123°05'0 0.0
2018-Mar-22 20:00N 49°18' W 123°05'0 0.1
2018-Mar-22 19:30N 49°18' W 123°05'0 0.0
2018-Mar-22 19:00N 49°18' W 123°05'0 0.1
2018-Mar-22 18:30N 49°18' W 123°05'0 0.1
2018-Mar-22 18:00N 49°18' W 123°05'0 0.1
2018-Mar-22 17:30N 49°18' W 123°05'0 0.2
2018-Mar-22 17:00N 49°18' W 123°05'0 0.2
2018-Mar-22 16:30N 49°18' W 123°05'0 0.2
2018-Mar-22 16:00N 49°18' W 123°05'0 0.2
2018-Mar-22 15:30N 49°18' W 123°05'0 0.2
2018-Mar-22 15:00N 49°18' W 123°05'0 0.1
2018-Mar-22 14:30N 49°18' W 123°05'0 0.1
2018-Mar-22 14:00N 49°18' W 123°05'0 0.0
2018-Mar-22 13:30N 49°18' W 123°05'0 0.1
2018-Mar-22 13:00N 49°18' W 123°05'0 0.0
2018-Mar-22 12:30N 49°18' W 123°05'0 0.1
2018-Mar-22 12:00N 49°18' W 123°05'0 0.0
2018-Mar-22 11:30N 49°18' W 123°05'0 0.0
2018-Mar-22 11:00N 49°18' W 123°05'0 0.0
2018-Mar-22 10:30N 49°18' W 123°05'0 0.0
2018-Mar-22 10:00N 49°18' W 123°05'0 0.0
2018-Mar-22 09:30N 49°18' W 123°05'0 0.0
2018-Mar-22 09:00N 49°18' W 123°05'0 0.1
2018-Mar-22 08:30N 49°18' W 123°05'0 0.1
2018-Mar-22 08:00N 49°18' W 123°05'0 0.2
2018-Mar-22 07:30N 49°18' W 123°05'0 0.0
2018-Mar-22 07:00N 49°18' W 123°05'0 0.1
2018-Mar-22 06:30N 49°18' W 123°05'0 0.0
2018-Mar-22 06:00N 49°18' W 123°05'0 0.1
2018-Mar-22 05:30N 49°18' W 123°05'0 0.0
2018-Mar-22 05:00N 49°18' W 123°05'0 0.1
2018-Mar-22 04:30N 49°18' W 123°05'0 0.2
2018-Mar-22 04:00N 49°18' W 123°05'0 0.2
2018-Mar-22 03:30N 49°18' W 123°05'0 0.2
2018-Mar-22 03:00N 49°18' W 123°05'0 0.1
2018-Mar-22 02:27N 49°18' W 123°05'0 0.0
2018-Mar-22 02:00N 49°18' W 123°05'0 0.1
2018-Mar-22 01:30N 49°18' W 123°05'0 0.1
2018-Mar-22 01:00N 49°18' W 123°05'0 0.2
2018-Mar-22 00:30N 49°18' W 123°05'0 0.0
2018-Mar-22 00:00N 49°18' W 123°05'0 0.1
2018-Mar-21 23:30N 49°18' W 123°05'0 0.1
2018-Mar-21 23:00N 49°18' W 123°05'0 0.0
2018-Mar-21 22:30N 49°18' W 123°05'0 0.1
2018-Mar-21 22:00N 49°18' W 123°05'0 0.1
2018-Mar-21 21:30N 49°18' W 123°05'0 0.1
2018-Mar-21 21:00N 49°18' W 123°05'0 0.0
2018-Mar-21 20:30N 49°18' W 123°05'0 0.0
2018-Mar-21 20:00N 49°18' W 123°05'0 0.0
2018-Mar-21 19:30N 49°18' W 123°05'0 0.1
2018-Mar-21 19:00N 49°18' W 123°05'0 0.1
2018-Mar-21 18:30N 49°18' W 123°05'0 0.0
2018-Mar-21 18:00N 49°18' W 123°05'0 0.1
2018-Mar-21 17:30N 49°18' W 123°05'0 0.1
2018-Mar-21 17:00N 49°18' W 123°05'0 0.1
2018-Mar-21 16:30N 49°18' W 123°05'0 0.1
2018-Mar-21 16:00N 49°18' W 123°05'0 0.0
2018-Mar-21 15:30N 49°18' W 123°05'0 0.1
2018-Mar-21 15:00N 49°18' W 123°05'0 0.1
2018-Mar-21 14:30N 49°18' W 123°05'0 0.1
2018-Mar-21 14:00N 49°18' W 123°05'0 0.1
2018-Mar-21 13:30N 49°18' W 123°05'0 0.1
2018-Mar-21 13:00N 49°18' W 123°05'0 0.1
2018-Mar-21 12:30N 49°18' W 123°05'0 0.2
2018-Mar-21 12:00N 49°18' W 123°05'0 0.1
2018-Mar-21 11:30N 49°18' W 123°05'0 0.1
2018-Mar-21 11:00N 49°18' W 123°05'0 0.0
2018-Mar-21 10:30N 49°18' W 123°05'0 0.4
2018-Mar-21 10:00N 49°18' W 123°05'1 1.3
2018-Mar-21 09:30N 49°17' W 123°05'0 0.0
2018-Mar-21 09:00N 49°17' W 123°05'0 0.0
2018-Mar-21 08:30N 49°17' W 123°05'0 0.0
2018-Mar-21 08:00N 49°17' W 123°05'0 0.0
2018-Mar-21 07:30N 49°17' W 123°05'0 0.0
2018-Mar-21 07:00N 49°17' W 123°05'0 0.0
2018-Mar-21 06:30N 49°17' W 123°05'0 0.0
2018-Mar-21 06:00N 49°17' W 123°05'0 0.0
2018-Mar-21 05:30N 49°17' W 123°05'0 0.0
2018-Mar-21 05:00N 49°17' W 123°05'0 0.0
2018-Mar-21 04:30N 49°17' W 123°05'0 0.0
2018-Mar-21 04:00N 49°17' W 123°05'0 0.0
2018-Mar-21 03:30N 49°17' W 123°05'0 0.0
2018-Mar-21 03:00N 49°17' W 123°05'0 0.0
2018-Mar-21 02:30N 49°17' W 123°05'0 0.0
2018-Mar-21 02:00N 49°17' W 123°05'0 0.0
2018-Mar-21 01:30N 49°17' W 123°05'0 0.0
2018-Mar-21 01:00N 49°17' W 123°05'0 0.0
2018-Mar-21 00:30N 49°17' W 123°05'0 0.0
2018-Mar-21 00:00N 49°17' W 123°05'0 0.0
2018-Mar-20 23:30N 49°17' W 123°05'0 0.0
2018-Mar-20 23:00N 49°17' W 123°05'0 0.0
2018-Mar-20 22:27N 49°17' W 123°05'0 0.0
2018-Mar-20 22:00N 49°17' W 123°05'0 0.0
2018-Mar-20 21:30N 49°17' W 123°05'0 0.0
2018-Mar-20 21:00N 49°17' W 123°05'0 0.0
2018-Mar-20 20:30N 49°17' W 123°05'0 0.0
2018-Mar-20 20:00N 49°17' W 123°05'0 0.0
2018-Mar-20 19:27N 49°17' W 123°05'0 0.0
2018-Mar-20 19:00N 49°17' W 123°05'0 0.0
2018-Mar-20 18:30N 49°17' W 123°05'0 0.0
2018-Mar-20 18:00N 49°17' W 123°05'0 0.0
2018-Mar-20 17:30N 49°17' W 123°05'0 0.0
2018-Mar-20 17:00N 49°17' W 123°05'1 1.2
2018-Mar-20 16:30N 49°18' W 123°05'3 5.4
2018-Mar-20 16:00N 49°19' W 123°09'3 5.1
2018-Mar-20 15:27N 49°17' W 123°12'0 0.0
2018-Mar-20 15:00N 49°17' W 123°12'0 0.0
2018-Mar-20 14:30N 49°17' W 123°12'0 0.1
2018-Mar-20 14:00N 49°17' W 123°12'0 0.2
2018-Mar-20 13:27N 49°17' W 123°11'0 0.2
2018-Mar-20 13:00N 49°17' W 123°11'0 0.0
2018-Mar-20 12:30N 49°17' W 123°11'0 0.0
2018-Mar-20 11:57N 49°17' W 123°11'0 0.0
2018-Mar-20 11:21N 49°17' W 123°11'0 0.0
2018-Mar-20 11:00N 49°17' W 123°11'0 0.0
2018-Mar-20 10:27N 49°17' W 123°11'0 0.0
2018-Mar-20 10:00N 49°17' W 123°11'0 0.0
2018-Mar-20 09:30N 49°17' W 123°11'0 0.0
2018-Mar-20 09:00N 49°17' W 123°11'0 0.0
2018-Mar-20 08:30N 49°17' W 123°11'0 0.2
2018-Mar-20 08:00N 49°17' W 123°11'0 0.1
2018-Mar-20 07:30N 49°17' W 123°11'0 0.1
2018-Mar-20 06:57N 49°17' W 123°12'0 0.1
2018-Mar-20 06:30N 49°17' W 123°12'0 0.1
2018-Mar-20 05:57N 49°17' W 123°12'0 0.0
2018-Mar-20 05:30N 49°17' W 123°12'0 0.0
2018-Mar-20 05:00N 49°17' W 123°12'0 0.1
2018-Mar-20 04:30N 49°17' W 123°11'0 0.1
2018-Mar-20 04:00N 49°17' W 123°11'0 0.1
2018-Mar-20 03:30N 49°17' W 123°11'0 0.1
2018-Mar-20 02:57N 49°17' W 123°11'0 0.1
2018-Mar-20 02:27N 49°17' W 123°11'0 0.0
2018-Mar-20 02:00N 49°17' W 123°11'0 0.0
2018-Mar-20 01:30N 49°17' W 123°11'0 0.0
2018-Mar-20 00:57N 49°17' W 123°11'0 0.0
2018-Mar-20 00:30N 49°17' W 123°11'0 0.0
2018-Mar-19 23:57N 49°17' W 123°11'0 0.0
2018-Mar-19 23:21N 49°17' W 123°11'0 0.0
2018-Mar-19 23:00N 49°17' W 123°11'0 0.0
2018-Mar-19 22:30N 49°17' W 123°11'0 0.0
2018-Mar-19 22:00N 49°17' W 123°11'0 0.0
2018-Mar-19 21:27N 49°17' W 123°11'0 0.0
2018-Mar-19 21:00N 49°17' W 123°11'0 0.2
2018-Mar-19 20:30N 49°17' W 123°11'0 0.2
2018-Mar-19 19:54N 49°17' W 123°12'0 0.1
2018-Mar-19 19:24N 49°17' W 123°12'0 0.0
2018-Mar-19 19:00N 49°17' W 123°12'0 0.0
2018-Mar-19 18:30N 49°17' W 123°12'0 0.0
2018-Mar-19 18:00N 49°17' W 123°12'0 0.0
2018-Mar-19 17:30N 49°17' W 123°12'0 0.0
2018-Mar-19 17:00N 49°17' W 123°12'0 0.0
2018-Mar-19 16:30N 49°17' W 123°12'  
Track history (hours):
 
Tides and Currents Weather Stations Pressure Air Temp Water Temp Dewpoint Dewpoint Depression Visibility Wind Speed Wind Dir Waves Ship Positions

Carmencita

Last reported at 2018-Mar-29 16:01 UTC. Time now 2018-Apr-24 18:34 UTC.
Position N 48°21' W 125°49'.
Warning: this ship's position is 26 days out of date.

Length 185 m; draft 12.8 m.

Type: Cargo ship. MMSI: 259741000.

Date/timePositionNaut miles runAvg speedWind from/ knotsBaromVisibWave heightAir tempDewpointWater temp
2018-Mar-29 16:01N 48°21' W 125°49'015.0
2018-Mar-29 16:00N 48°21' W 125°49'511.1
2018-Mar-29 15:31N 48°23' W 125°42'611.1
2018-Mar-29 15:01N 48°25' W 125°34'811.0
2018-Mar-29 14:16N 48°28' W 125°22'311.2
2018-Mar-29 14:00N 48°29' W 125°18'611.2
2018-Mar-29 13:29N 48°31' W 125°10'611.2
2018-Mar-29 12:59N 48°31' W 125°01'511.5
2018-Mar-29 12:30N 48°31' W 124°53'611.2
2018-Mar-29 12:00N 48°31' W 124°45'510.7
2018-Mar-29 11:30N 48°29' W 124°37'510.4
2018-Mar-29 11:00N 48°27' W 124°30'510.6
2018-Mar-29 10:31N 48°25' W 124°23'510.1
2018-Mar-29 10:00N 48°23' W 124°16'5 9.9
2018-Mar-29 09:30N 48°21' W 124°09'510.1
2018-Mar-29 09:00N 48°19' W 124°02'510.0
2018-Mar-29 08:30N 48°18' W 123°55'5 9.0
2018-Mar-29 07:54N 48°17' W 123°47'4 8.9
2018-Mar-29 07:24N 48°16' W 123°40'4 9.0
2018-Mar-29 06:55N 48°15' W 123°34'3 6.3
2018-Mar-29 06:28N 48°16' W 123°29'4 9.7
2018-Mar-29 06:01N 48°20' W 123°26'5 7.2
2018-Mar-29 05:22N 48°23' W 123°21'410.5
2018-Mar-29 05:01N 48°24' W 123°15'611.5
2018-Mar-29 04:30N 48°29' W 123°12'714.7
2018-Mar-29 04:00N 48°37' W 123°15'713.1
2018-Mar-29 03:31N 48°43' W 123°13'814.8
2018-Mar-29 03:00N 48°46' W 123°02'611.5
2018-Mar-29 02:30N 48°52' W 123°05'714.4
2018-Mar-29 02:01N 48°57' W 123°13'714.0
2018-Mar-29 01:30N 49°01' W 123°21'612.8
2018-Mar-29 01:00N 49°08' W 123°23'713.5
2018-Mar-29 00:30N 49°14' W 123°21'611.9
2018-Mar-29 00:00N 49°19' W 123°15'510.2
2018-Mar-28 23:30N 49°19' W 123°08'2 4.4
2018-Mar-28 22:58N 49°17' W 123°05'0 0.0
2018-Mar-28 22:28N 49°17' W 123°05'0 0.0
2018-Mar-28 21:58N 49°17' W 123°05'0 0.0
2018-Mar-28 21:28N 49°17' W 123°05'0 0.0
2018-Mar-28 20:58N 49°17' W 123°05'0 0.0
2018-Mar-28 20:28N 49°17' W 123°05'0 0.0
2018-Mar-28 19:58N 49°17' W 123°05'0 0.0
2018-Mar-28 19:28N 49°17' W 123°05'0 0.0
2018-Mar-28 18:58N 49°17' W 123°05'0 0.0
2018-Mar-28 18:28N 49°17' W 123°05'0 0.0
2018-Mar-28 17:58N 49°17' W 123°05'0 0.0
2018-Mar-28 17:28N 49°17' W 123°05'0 0.0
2018-Mar-28 16:58N 49°17' W 123°05'0 0.0
2018-Mar-28 16:28N 49°17' W 123°05'0 0.0
2018-Mar-28 15:58N 49°17' W 123°05'0 0.0
2018-Mar-28 15:28N 49°17' W 123°05'0 0.0
2018-Mar-28 14:58N 49°17' W 123°05'0 0.0
2018-Mar-28 14:28N 49°17' W 123°05'0 0.0
2018-Mar-28 13:58N 49°17' W 123°05'0 0.0
2018-Mar-28 13:28N 49°17' W 123°05'0 0.0
2018-Mar-28 12:58N 49°17' W 123°05'0 0.0
2018-Mar-28 12:28N 49°17' W 123°05'0 0.0
2018-Mar-28 11:58N 49°17' W 123°05'0 0.0
2018-Mar-28 11:28N 49°17' W 123°05'0 0.0
2018-Mar-28 10:58N 49°17' W 123°05'0 0.0
2018-Mar-28 10:28N 49°17' W 123°05'0 0.0
2018-Mar-28 09:58N 49°17' W 123°05'0 0.0
2018-Mar-28 09:28N 49°17' W 123°05'0 0.0
2018-Mar-28 08:58N 49°17' W 123°05'0 0.0
2018-Mar-28 08:28N 49°17' W 123°05'0 0.0
2018-Mar-28 07:58N 49°17' W 123°05'0 0.0
2018-Mar-28 07:28N 49°17' W 123°05'0 0.0
2018-Mar-28 06:58N 49°17' W 123°05'0 0.0
2018-Mar-28 06:28N 49°17' W 123°05'0 0.0
2018-Mar-28 05:58N 49°17' W 123°05'0 0.0
2018-Mar-28 05:28N 49°17' W 123°05'0 0.0
2018-Mar-28 04:58N 49°17' W 123°05'0 0.0
2018-Mar-28 04:28N 49°17' W 123°05'0 0.0
2018-Mar-28 03:58N 49°17' W 123°05'0 0.0
2018-Mar-28 03:28N 49°17' W 123°05'0 0.0
2018-Mar-28 02:58N 49°17' W 123°05'0 0.0
2018-Mar-28 02:28N 49°17' W 123°05'0 0.0
2018-Mar-28 01:58N 49°17' W 123°05'0 0.0
2018-Mar-28 01:28N 49°17' W 123°05'0 0.0
2018-Mar-28 00:58N 49°17' W 123°05'0 0.0
2018-Mar-28 00:28N 49°17' W 123°05'0 0.0
2018-Mar-27 23:58N 49°17' W 123°05'0 0.0
2018-Mar-27 23:28N 49°17' W 123°05'0 0.0
2018-Mar-27 22:58N 49°17' W 123°05'0 0.0
2018-Mar-27 22:28N 49°17' W 123°05'0 0.0
2018-Mar-27 21:58N 49°17' W 123°05'0 0.0
2018-Mar-27 21:28N 49°17' W 123°05'0 0.0
2018-Mar-27 20:58N 49°17' W 123°05'0 0.0
2018-Mar-27 20:28N 49°17' W 123°05'0 0.0
2018-Mar-27 19:58N 49°17' W 123°05'0 0.0
2018-Mar-27 19:28N 49°17' W 123°05'0 0.1
2018-Mar-27 18:58N 49°17' W 123°05'0 0.1
2018-Mar-27 18:28N 49°17' W 123°05'0 0.0
2018-Mar-27 17:58N 49°17' W 123°05'0 0.0
2018-Mar-27 17:28N 49°17' W 123°05'0 0.0
2018-Mar-27 16:58N 49°17' W 123°05'0 0.0
2018-Mar-27 16:28N 49°17' W 123°05'0 0.0
2018-Mar-27 15:58N 49°17' W 123°05'0 0.0
2018-Mar-27 15:28N 49°17' W 123°05'0 0.0
2018-Mar-27 14:55N 49°17' W 123°05'0 0.0
2018-Mar-27 14:28N 49°17' W 123°05'0 0.0
2018-Mar-27 13:58N 49°17' W 123°05'0 0.0
2018-Mar-27 13:28N 49°17' W 123°05'0 0.0
2018-Mar-27 12:58N 49°17' W 123°05'0 0.0
2018-Mar-27 12:28N 49°17' W 123°05'0 0.0
2018-Mar-27 11:58N 49°17' W 123°05'0 0.0
2018-Mar-27 11:28N 49°17' W 123°05'0 0.0
2018-Mar-27 10:58N 49°17' W 123°05'0 0.0
2018-Mar-27 10:28N 49°17' W 123°05'0 0.0
2018-Mar-27 09:58N 49°17' W 123°05'0 0.0
2018-Mar-27 09:28N 49°17' W 123°05'0 0.0
2018-Mar-27 08:55N 49°17' W 123°05'0 0.0
2018-Mar-27 08:28N 49°17' W 123°05'0 0.0
2018-Mar-27 07:58N 49°17' W 123°05'0 0.0
2018-Mar-27 07:28N 49°17' W 123°05'0 0.0
2018-Mar-27 06:58N 49°17' W 123°05'0 0.0
2018-Mar-27 06:28N 49°17' W 123°05'0 0.0
2018-Mar-27 05:58N 49°17' W 123°05'0 0.0
2018-Mar-27 05:28N 49°17' W 123°05'0 0.0
2018-Mar-27 04:58N 49°17' W 123°05'0 0.0
2018-Mar-27 04:28N 49°17' W 123°05'0 0.0
2018-Mar-27 03:58N 49°17' W 123°05'0 0.0
2018-Mar-27 03:28N 49°17' W 123°05'0 0.0
2018-Mar-27 02:58N 49°17' W 123°05'0 0.0
2018-Mar-27 02:28N 49°17' W 123°05'0 0.0
2018-Mar-27 01:58N 49°17' W 123°05'0 0.0
2018-Mar-27 01:28N 49°17' W 123°05'0 0.0
2018-Mar-27 00:58N 49°17' W 123°05'0 0.0
2018-Mar-27 00:28N 49°17' W 123°05'0 0.0
2018-Mar-26 23:55N 49°17' W 123°05'0 0.0
2018-Mar-26 23:28N 49°17' W 123°05'0 0.0
2018-Mar-26 22:55N 49°17' W 123°05'0 0.0
2018-Mar-26 22:28N 49°17' W 123°05'0 0.0
2018-Mar-26 21:58N 49°17' W 123°05'0 0.0
2018-Mar-26 21:28N 49°17' W 123°05'0 0.0
2018-Mar-26 20:58N 49°17' W 123°05'0 0.0
2018-Mar-26 20:28N 49°17' W 123°05'0 0.0
2018-Mar-26 19:58N 49°17' W 123°05'0 0.0
2018-Mar-26 19:28N 49°17' W 123°05'0 0.0
2018-Mar-26 18:58N 49°17' W 123°05'0 0.0
2018-Mar-26 18:25N 49°17' W 123°05'0 0.0
2018-Mar-26 17:58N 49°17' W 123°05'0 0.0
2018-Mar-26 17:28N 49°17' W 123°05'0 0.0
2018-Mar-26 16:58N 49°17' W 123°05'0 0.0
2018-Mar-26 16:28N 49°17' W 123°05'0 0.0
2018-Mar-26 15:58N 49°17' W 123°05'0 0.0
2018-Mar-26 15:28N 49°17' W 123°05'0 0.0
2018-Mar-26 14:58N 49°17' W 123°05'0 0.0
2018-Mar-26 14:28N 49°17' W 123°05'0 0.0
2018-Mar-26 13:58N 49°17' W 123°05'0 0.0
2018-Mar-26 13:28N 49°17' W 123°05'0 0.0
2018-Mar-26 12:58N 49°17' W 123°05'0 0.0
2018-Mar-26 12:28N 49°17' W 123°05'0 0.0
2018-Mar-26 11:55N 49°17' W 123°05'0 0.0
2018-Mar-26 11:28N 49°17' W 123°05'0 0.0
2018-Mar-26 10:55N 49°17' W 123°05'0 0.0
2018-Mar-26 10:28N 49°17' W 123°05'0 0.0
2018-Mar-26 09:58N 49°17' W 123°05'0 0.0
2018-Mar-26 09:28N 49°17' W 123°05'0 0.0
2018-Mar-26 08:58N 49°17' W 123°05'0 0.0
2018-Mar-26 08:28N 49°17' W 123°05'0 0.0
2018-Mar-26 07:58N 49°17' W 123°05'0 0.0
2018-Mar-26 07:28N 49°17' W 123°05'0 0.0
2018-Mar-26 06:55N 49°17' W 123°05'0 0.0
2018-Mar-26 06:28N 49°17' W 123°05'0 0.0
2018-Mar-26 05:58N 49°17' W 123°05'0 0.0
2018-Mar-26 05:28N 49°17' W 123°05'0 0.0
2018-Mar-26 04:49N 49°17' W 123°05'0 0.0
2018-Mar-26 04:25N 49°17' W 123°05'0 0.0
2018-Mar-26 03:58N 49°17' W 123°05'0 0.0
2018-Mar-26 03:28N 49°17' W 123°05'0 0.0
2018-Mar-26 02:58N 49°17' W 123°05'0 0.0
2018-Mar-26 02:28N 49°17' W 123°05'0 0.0
2018-Mar-26 01:58N 49°17' W 123°05'0 0.0
2018-Mar-26 01:30N 49°17' W 123°05'0 0.3
2018-Mar-26 01:00N 49°17' W 123°05'1 1.4
2018-Mar-26 00:30N 49°18' W 123°05'0 0.1
2018-Mar-26 00:00N 49°18' W 123°05'0 0.0
2018-Mar-25 23:30N 49°18' W 123°05'0 0.1
2018-Mar-25 23:00N 49°18' W 123°05'0 0.1
2018-Mar-25 22:30N 49°18' W 123°05'0 0.0
2018-Mar-25 22:00N 49°18' W 123°05'0 0.0
2018-Mar-25 21:30N 49°18' W 123°05'0 0.0
2018-Mar-25 21:00N 49°18' W 123°05'0 0.0
2018-Mar-25 20:30N 49°18' W 123°05'0 0.0
2018-Mar-25 20:00N 49°18' W 123°05'0 0.0
2018-Mar-25 19:30N 49°18' W 123°05'0 0.0
2018-Mar-25 19:00N 49°18' W 123°05'0 0.0
2018-Mar-25 18:30N 49°18' W 123°05'0 0.0
2018-Mar-25 18:00N 49°18' W 123°05'0 0.0
2018-Mar-25 17:30N 49°18' W 123°05'0 0.0
2018-Mar-25 17:00N 49°18' W 123°05'0 0.0
2018-Mar-25 16:30N 49°18' W 123°05'0 0.0
2018-Mar-25 16:00N 49°18' W 123°05'0 0.0
2018-Mar-25 15:30N 49°18' W 123°05'0 0.0
2018-Mar-25 15:00N 49°18' W 123°05'0 0.0
2018-Mar-25 14:30N 49°18' W 123°05'0 0.0
2018-Mar-25 14:00N 49°18' W 123°05'0 0.0
2018-Mar-25 13:30N 49°18' W 123°05'0 0.0
2018-Mar-25 13:00N 49°18' W 123°05'0 0.0
2018-Mar-25 12:30N 49°18' W 123°05'0 0.0
2018-Mar-25 12:00N 49°18' W 123°05'0 0.1
2018-Mar-25 11:30N 49°18' W 123°05'0 0.1
2018-Mar-25 11:00N 49°18' W 123°05'0 0.0
2018-Mar-25 10:30N 49°18' W 123°05'0 0.0
2018-Mar-25 10:00N 49°18' W 123°05'0 0.0
2018-Mar-25 09:30N 49°18' W 123°05'0 0.0
2018-Mar-25 09:00N 49°18' W 123°05'0 0.1
2018-Mar-25 08:30N 49°18' W 123°05'0 0.0
2018-Mar-25 08:00N 49°18' W 123°05'0 0.0
2018-Mar-25 07:30N 49°18' W 123°05'0 0.1
2018-Mar-25 07:00N 49°18' W 123°05'0 0.0
2018-Mar-25 06:30N 49°18' W 123°05'0 0.1
2018-Mar-25 06:00N 49°18' W 123°05'0 0.0
2018-Mar-25 05:30N 49°18' W 123°05'0 0.2
2018-Mar-25 05:00N 49°18' W 123°05'0 0.0
2018-Mar-25 04:30N 49°18' W 123°05'0 0.0
2018-Mar-25 04:00N 49°18' W 123°05'0 0.1
2018-Mar-25 03:30N 49°18' W 123°05'0 0.0
2018-Mar-25 03:00N 49°18' W 123°05'0 0.0
2018-Mar-25 02:30N 49°18' W 123°05'0 0.1
2018-Mar-25 02:00N 49°18' W 123°05'0 0.1
2018-Mar-25 01:30N 49°18' W 123°05'0 0.1
2018-Mar-25 01:00N 49°18' W 123°05'0 0.0
2018-Mar-25 00:30N 49°18' W 123°05'0 0.0
2018-Mar-25 00:00N 49°18' W 123°05'0 0.1
2018-Mar-24 23:30N 49°18' W 123°05'0 0.0
2018-Mar-24 23:00N 49°18' W 123°05'0 0.0
2018-Mar-24 22:30N 49°18' W 123°05'0 0.0
2018-Mar-24 22:00N 49°18' W 123°05'0 0.0
2018-Mar-24 21:30N 49°18' W 123°05'0 0.0
2018-Mar-24 21:00N 49°18' W 123°05'0 0.1
2018-Mar-24 20:30N 49°18' W 123°05'0 0.1
2018-Mar-24 20:00N 49°18' W 123°05'0 0.1
2018-Mar-24 19:30N 49°18' W 123°05'0 0.1
2018-Mar-24 19:00N 49°18' W 123°05'0 0.3
2018-Mar-24 18:30N 49°18' W 123°05'0 0.2
2018-Mar-24 18:00N 49°18' W 123°05'0 0.0
2018-Mar-24 17:30N 49°18' W 123°05'0 0.1
2018-Mar-24 17:00N 49°18' W 123°05'0 0.0
2018-Mar-24 16:30N 49°18' W 123°05'0 0.0
2018-Mar-24 16:00N 49°18' W 123°05'0 0.0
2018-Mar-24 15:30N 49°18' W 123°05'0 0.0
2018-Mar-24 15:00N 49°18' W 123°05'0 0.1
2018-Mar-24 14:30N 49°18' W 123°05'0 0.2
2018-Mar-24 14:00N 49°18' W 123°05'0 0.1
2018-Mar-24 13:30N 49°18' W 123°05'0 0.1
2018-Mar-24 13:00N 49°18' W 123°05'0 0.0
2018-Mar-24 12:30N 49°18' W 123°05'0 0.0
2018-Mar-24 12:00N 49°18' W 123°05'0 0.1
2018-Mar-24 11:30N 49°18' W 123°05'0 0.1
2018-Mar-24 11:00N 49°18' W 123°05'0 0.0
2018-Mar-24 10:30N 49°18' W 123°05'0 0.0
2018-Mar-24 10:00N 49°18' W 123°05'0 0.0
2018-Mar-24 09:30N 49°18' W 123°05'0 0.0
2018-Mar-24 09:00N 49°18' W 123°05'0 0.2
2018-Mar-24 08:30N 49°18' W 123°05'0 0.1
2018-Mar-24 08:00N 49°18' W 123°05'0 0.1
2018-Mar-24 07:30N 49°18' W 123°05'0 0.1
2018-Mar-24 07:00N 49°18' W 123°05'0 0.1
2018-Mar-24 06:30N 49°18' W 123°05'0 0.2
2018-Mar-24 06:00N 49°18' W 123°05'0 0.2
2018-Mar-24 05:30N 49°18' W 123°05'0 0.2
2018-Mar-24 05:00N 49°18' W 123°05'0 0.1
2018-Mar-24 04:30N 49°18' W 123°05'0 0.0
2018-Mar-24 04:00N 49°18' W 123°05'0 0.2
2018-Mar-24 03:30N 49°18' W 123°05'0 0.0
2018-Mar-24 03:00N 49°18' W 123°05'0 0.2
2018-Mar-24 02:30N 49°18' W 123°05'0 0.1
2018-Mar-24 02:00N 49°18' W 123°05'0 0.1
2018-Mar-24 01:30N 49°18' W 123°05'0 0.0
2018-Mar-24 01:00N 49°18' W 123°05'0 0.0
2018-Mar-24 00:30N 49°18' W 123°05'0 0.0
2018-Mar-24 00:00N 49°18' W 123°05'0 0.0
2018-Mar-23 23:30N 49°18' W 123°05'0 0.0
2018-Mar-23 23:00N 49°18' W 123°05'0 0.0
2018-Mar-23 22:30N 49°18' W 123°05'0 0.0
2018-Mar-23 22:00N 49°18' W 123°05'0 0.0
2018-Mar-23 21:30N 49°18' W 123°05'0 0.0
2018-Mar-23 21:00N 49°18' W 123°05'0 0.0
2018-Mar-23 20:30N 49°18' W 123°05'0 0.0
2018-Mar-23 20:00N 49°18' W 123°05'0 0.0
2018-Mar-23 19:30N 49°18' W 123°05'0 0.0
2018-Mar-23 19:00N 49°18' W 123°05'0 0.0
2018-Mar-23 18:30N 49°18' W 123°05'0 0.0
2018-Mar-23 18:00N 49°18' W 123°05'0 0.0
2018-Mar-23 17:30N 49°18' W 123°05'0 0.0
2018-Mar-23 17:00N 49°18' W 123°05'0 0.1
2018-Mar-23 16:30N 49°18' W 123°05'0 0.1
2018-Mar-23 16:00N 49°18' W 123°05'0 0.0
2018-Mar-23 15:30N 49°18' W 123°05'0 0.0
2018-Mar-23 15:00N 49°18' W 123°05'0 0.1
2018-Mar-23 14:30N 49°18' W 123°05'0 0.0
2018-Mar-23 14:00N 49°18' W 123°05'0 0.1
2018-Mar-23 13:30N 49°18' W 123°05'0 0.0
2018-Mar-23 13:00N 49°18' W 123°05'0 0.0
2018-Mar-23 12:30N 49°18' W 123°05'0 0.0
2018-Mar-23 12:00N 49°18' W 123°05'0 0.0
2018-Mar-23 11:30N 49°18' W 123°05'0 0.0
2018-Mar-23 11:00N 49°18' W 123°05'0 0.0
2018-Mar-23 10:30N 49°18' W 123°05'0 0.0
2018-Mar-23 10:00N 49°18' W 123°05'0 0.0
2018-Mar-23 09:30N 49°18' W 123°05'0 0.0
2018-Mar-23 09:00N 49°18' W 123°05'0 0.1
2018-Mar-23 08:30N 49°18' W 123°05'0 0.1
2018-Mar-23 08:00N 49°18' W 123°05'0 0.1
2018-Mar-23 07:30N 49°18' W 123°05'0 0.0
2018-Mar-23 07:00N 49°18' W 123°05'0 0.0
2018-Mar-23 06:30N 49°18' W 123°05'0 0.0
2018-Mar-23 06:00N 49°18' W 123°05'0 0.0
2018-Mar-23 05:30N 49°18' W 123°05'0 0.2
2018-Mar-23 05:00N 49°18' W 123°05'0 0.2
2018-Mar-23 04:30N 49°18' W 123°05'0 0.1
2018-Mar-23 04:00N 49°18' W 123°05'0 0.1
2018-Mar-23 03:30N 49°18' W 123°05'0 0.2
2018-Mar-23 03:00N 49°18' W 123°05'0 0.1
2018-Mar-23 02:30N 49°18' W 123°05'0 0.1
2018-Mar-23 02:00N 49°18' W 123°05'0 0.0
2018-Mar-23 01:30N 49°18' W 123°05'0 0.0
2018-Mar-23 01:00N 49°18' W 123°05'0 0.1
2018-Mar-23 00:30N 49°18' W 123°05'0 0.0
2018-Mar-23 00:00N 49°18' W 123°05'0 0.1
2018-Mar-22 23:30N 49°18' W 123°05'0 0.0
2018-Mar-22 23:00N 49°18' W 123°05'0 0.0
2018-Mar-22 22:30N 49°18' W 123°05'0 0.0
2018-Mar-22 22:00N 49°18' W 123°05'0 0.0
2018-Mar-22 21:30N 49°18' W 123°05'0 0.0
2018-Mar-22 21:00N 49°18' W 123°05'0 0.0
2018-Mar-22 20:30N 49°18' W 123°05'0 0.0
2018-Mar-22 20:00N 49°18' W 123°05'0 0.1
2018-Mar-22 19:30N 49°18' W 123°05'0 0.0
2018-Mar-22 19:00N 49°18' W 123°05'0 0.1
2018-Mar-22 18:30N 49°18' W 123°05'0 0.1
2018-Mar-22 18:00N 49°18' W 123°05'0 0.1
2018-Mar-22 17:30N 49°18' W 123°05'0 0.2
2018-Mar-22 17:00N 49°18' W 123°05'0 0.2
2018-Mar-22 16:30N 49°18' W 123°05'0 0.2
2018-Mar-22 16:00N 49°18' W 123°05'0 0.2
2018-Mar-22 15:30N 49°18' W 123°05'0 0.2
2018-Mar-22 15:00N 49°18' W 123°05'0 0.1
2018-Mar-22 14:30N 49°18' W 123°05'0 0.1
2018-Mar-22 14:00N 49°18' W 123°05'0 0.0
2018-Mar-22 13:30N 49°18' W 123°05'0 0.1
2018-Mar-22 13:00N 49°18' W 123°05'0 0.0
2018-Mar-22 12:30N 49°18' W 123°05'0 0.1
2018-Mar-22 12:00N 49°18' W 123°05'0 0.0
2018-Mar-22 11:30N 49°18' W 123°05'0 0.0
2018-Mar-22 11:00N 49°18' W 123°05'0 0.0
2018-Mar-22 10:30N 49°18' W 123°05'0 0.0
2018-Mar-22 10:00N 49°18' W 123°05'0 0.0
2018-Mar-22 09:30N 49°18' W 123°05'0 0.0
2018-Mar-22 09:00N 49°18' W 123°05'0 0.1
2018-Mar-22 08:30N 49°18' W 123°05'0 0.1
2018-Mar-22 08:00N 49°18' W 123°05'0 0.2
2018-Mar-22 07:30N 49°18' W 123°05'0 0.0
2018-Mar-22 07:00N 49°18' W 123°05'0 0.1
2018-Mar-22 06:30N 49°18' W 123°05'0 0.0
2018-Mar-22 06:00N 49°18' W 123°05'0 0.1
2018-Mar-22 05:30N 49°18' W 123°05'0 0.0
2018-Mar-22 05:00N 49°18' W 123°05'0 0.1
2018-Mar-22 04:30N 49°18' W 123°05'0 0.2
2018-Mar-22 04:00N 49°18' W 123°05'0 0.2
2018-Mar-22 03:30N 49°18' W 123°05'0 0.2
2018-Mar-22 03:00N 49°18' W 123°05'0 0.1
2018-Mar-22 02:27N 49°18' W 123°05'0 0.0
2018-Mar-22 02:00N 49°18' W 123°05'0 0.1
2018-Mar-22 01:30N 49°18' W 123°05'0 0.1
2018-Mar-22 01:00N 49°18' W 123°05'0 0.2
2018-Mar-22 00:30N 49°18' W 123°05'0 0.0
2018-Mar-22 00:00N 49°18' W 123°05'0 0.1
2018-Mar-21 23:30N 49°18' W 123°05'0 0.1
2018-Mar-21 23:00N 49°18' W 123°05'0 0.0
2018-Mar-21 22:30N 49°18' W 123°05'0 0.1
2018-Mar-21 22:00N 49°18' W 123°05'0 0.1
2018-Mar-21 21:30N 49°18' W 123°05'0 0.1
2018-Mar-21 21:00N 49°18' W 123°05'0 0.0
2018-Mar-21 20:30N 49°18' W 123°05'0 0.0
2018-Mar-21 20:00N 49°18' W 123°05'0 0.0
2018-Mar-21 19:30N 49°18' W 123°05'0 0.1
2018-Mar-21 19:00N 49°18' W 123°05'0 0.1
2018-Mar-21 18:30N 49°18' W 123°05'0 0.0
2018-Mar-21 18:00N 49°18' W 123°05'0 0.1
2018-Mar-21 17:30N 49°18' W 123°05'0 0.1
2018-Mar-21 17:00N 49°18' W 123°05'0 0.1
2018-Mar-21 16:30N 49°18' W 123°05'0 0.1
2018-Mar-21 16:00N 49°18' W 123°05'0 0.0
2018-Mar-21 15:30N 49°18' W 123°05'0 0.1
2018-Mar-21 15:00N 49°18' W 123°05'0 0.1
2018-Mar-21 14:30N 49°18' W 123°05'0 0.1
2018-Mar-21 14:00N 49°18' W 123°05'0 0.1
2018-Mar-21 13:30N 49°18' W 123°05'0 0.1
2018-Mar-21 13:00N 49°18' W 123°05'0 0.1
2018-Mar-21 12:30N 49°18' W 123°05'0 0.2
2018-Mar-21 12:00N 49°18' W 123°05'0 0.1
2018-Mar-21 11:30N 49°18' W 123°05'0 0.1
2018-Mar-21 11:00N 49°18' W 123°05'0 0.0
2018-Mar-21 10:30N 49°18' W 123°05'0 0.4
2018-Mar-21 10:00N 49°18' W 123°05'1 1.3
2018-Mar-21 09:30N 49°17' W 123°05'0 0.0
2018-Mar-21 09:00N 49°17' W 123°05'0 0.0
2018-Mar-21 08:30N 49°17' W 123°05'0 0.0
2018-Mar-21 08:00N 49°17' W 123°05'0 0.0
2018-Mar-21 07:30N 49°17' W 123°05'0 0.0
2018-Mar-21 07:00N 49°17' W 123°05'0 0.0
2018-Mar-21 06:30N 49°17' W 123°05'0 0.0
2018-Mar-21 06:00N 49°17' W 123°05'0 0.0
2018-Mar-21 05:30N 49°17' W 123°05'0 0.0
2018-Mar-21 05:00N 49°17' W 123°05'0 0.0
2018-Mar-21 04:30N 49°17' W 123°05'0 0.0
2018-Mar-21 04:00N 49°17' W 123°05'0 0.0
2018-Mar-21 03:30N 49°17' W 123°05'0 0.0
2018-Mar-21 03:00N 49°17' W 123°05'0 0.0
2018-Mar-21 02:30N 49°17' W 123°05'0 0.0
2018-Mar-21 02:00N 49°17' W 123°05'0 0.0
2018-Mar-21 01:30N 49°17' W 123°05'0 0.0
2018-Mar-21 01:00N 49°17' W 123°05'0 0.0
2018-Mar-21 00:30N 49°17' W 123°05'0 0.0
2018-Mar-21 00:00N 49°17' W 123°05'0 0.0
2018-Mar-20 23:30N 49°17' W 123°05'0 0.0
2018-Mar-20 23:00N 49°17' W 123°05'0 0.0
2018-Mar-20 22:27N 49°17' W 123°05'0 0.0
2018-Mar-20 22:00N 49°17' W 123°05'0 0.0
2018-Mar-20 21:30N 49°17' W 123°05'0 0.0
2018-Mar-20 21:00N 49°17' W 123°05'0 0.0
2018-Mar-20 20:30N 49°17' W 123°05'0 0.0
2018-Mar-20 20:00N 49°17' W 123°05'0 0.0
2018-Mar-20 19:27N 49°17' W 123°05'0 0.0
2018-Mar-20 19:00N 49°17' W 123°05'0 0.0
2018-Mar-20 18:30N 49°17' W 123°05'0 0.0
2018-Mar-20 18:00N 49°17' W 123°05'0 0.0
2018-Mar-20 17:30N 49°17' W 123°05'0 0.0
2018-Mar-20 17:00N 49°17' W 123°05'1 1.2
2018-Mar-20 16:30N 49°18' W 123°05'3 5.4
2018-Mar-20 16:00N 49°19' W 123°09'3 5.1
2018-Mar-20 15:27N 49°17' W 123°12'0 0.0
2018-Mar-20 15:00N 49°17' W 123°12'0 0.0
2018-Mar-20 14:30N 49°17' W 123°12'0 0.1
2018-Mar-20 14:00N 49°17' W 123°12'0 0.2
2018-Mar-20 13:27N 49°17' W 123°11'0 0.2
2018-Mar-20 13:00N 49°17' W 123°11'0 0.0
2018-Mar-20 12:30N 49°17' W 123°11'0 0.0
2018-Mar-20 11:57N 49°17' W 123°11'0 0.0
2018-Mar-20 11:21N 49°17' W 123°11'0 0.0
2018-Mar-20 11:00N 49°17' W 123°11'0 0.0
2018-Mar-20 10:27N 49°17' W 123°11'0 0.0
2018-Mar-20 10:00N 49°17' W 123°11'0 0.0
2018-Mar-20 09:30N 49°17' W 123°11'0 0.0
2018-Mar-20 09:00N 49°17' W 123°11'0 0.0
2018-Mar-20 08:30N 49°17' W 123°11'0 0.2
2018-Mar-20 08:00N 49°17' W 123°11'0 0.1
2018-Mar-20 07:30N 49°17' W 123°11'0 0.1
2018-Mar-20 06:57N 49°17' W 123°12'0 0.1
2018-Mar-20 06:30N 49°17' W 123°12'0 0.1
2018-Mar-20 05:57N 49°17' W 123°12'0 0.0
2018-Mar-20 05:30N 49°17' W 123°12'0 0.0
2018-Mar-20 05:00N 49°17' W 123°12'0 0.1
2018-Mar-20 04:30N 49°17' W 123°11'0 0.1
2018-Mar-20 04:00N 49°17' W 123°11'0 0.1
2018-Mar-20 03:30N 49°17' W 123°11'0 0.1
2018-Mar-20 02:57N 49°17' W 123°11'0 0.1
2018-Mar-20 02:27N 49°17' W 123°11'0 0.0
2018-Mar-20 02:00N 49°17' W 123°11'0 0.0
2018-Mar-20 01:30N 49°17' W 123°11'0 0.0
2018-Mar-20 00:57N 49°17' W 123°11'0 0.0
2018-Mar-20 00:30N 49°17' W 123°11'0 0.0
2018-Mar-19 23:57N 49°17' W 123°11'0 0.0
2018-Mar-19 23:21N 49°17' W 123°11'0 0.0
2018-Mar-19 23:00N 49°17' W 123°11'0 0.0
2018-Mar-19 22:30N 49°17' W 123°11'0 0.0
2018-Mar-19 22:00N 49°17' W 123°11'0 0.0
2018-Mar-19 21:27N 49°17' W 123°11'0 0.0
2018-Mar-19 21:00N 49°17' W 123°11'0 0.2
2018-Mar-19 20:30N 49°17' W 123°11'0 0.2
2018-Mar-19 19:54N 49°17' W 123°12'0 0.1
2018-Mar-19 19:24N 49°17' W 123°12'0 0.0
2018-Mar-19 19:00N 49°17' W 123°12'0 0.0
2018-Mar-19 18:30N 49°17' W 123°12'0 0.0
2018-Mar-19 18:00N 49°17' W 123°12'0 0.0
2018-Mar-19 17:30N 49°17' W 123°12'0 0.0
2018-Mar-19 17:00N 49°17' W 123°12'0 0.0
2018-Mar-19 16:30N 49°17' W 123°12'  

Dump ship's entire track history